sensor_id;sensor_type;location;lat;lon;timestamp;P1;durP1;ratioP1;P2;durP2;ratioP2
19006;SDS011;9636;47.382;8.480;2022-08-21T04:18:51;21.60;;;15.43;;
19006;SDS011;9636;47.382;8.480;2022-08-21T04:52:05;14.93;;;11.38;;
19006;SDS011;9636;47.382;8.480;2022-08-21T05:02:36;16.80;;;11.93;;
19006;SDS011;9636;47.382;8.480;2022-08-21T05:05:19;22.40;;;15.23;;
19006;SDS011;9636;47.382;8.480;2022-08-21T05:08:00;23.10;;;16.07;;
19006;SDS011;9636;47.382;8.480;2022-08-21T05:11:14;23.50;;;16.40;;
19006;SDS011;9636;47.382;8.480;2022-08-21T05:13:54;24.20;;;15.67;;
19006;SDS011;9636;47.382;8.480;2022-08-21T05:16:25;23.40;;;15.33;;
19006;SDS011;9636;47.382;8.480;2022-08-21T05:19:08;24.33;;;16.10;;
19006;SDS011;9636;47.382;8.480;2022-08-21T05:21:39;25.70;;;17.10;;
19006;SDS011;9636;47.382;8.480;2022-08-21T05:24:28;23.63;;;16.13;;
19006;SDS011;9636;47.382;8.480;2022-08-21T05:31:01;24.83;;;16.63;;
19006;SDS011;9636;47.382;8.480;2022-08-21T05:34:07;26.70;;;17.07;;
19006;SDS011;9636;47.382;8.480;2022-08-21T05:50:26;26.23;;;17.27;;
19006;SDS011;9636;47.382;8.480;2022-08-21T05:53:14;29.47;;;16.70;;
19006;SDS011;9636;47.382;8.480;2022-08-21T05:55:55;24.30;;;16.10;;
19006;SDS011;9636;47.382;8.480;2022-08-21T05:58:42;27.33;;;16.87;;
19006;SDS011;9636;47.382;8.480;2022-08-21T06:01:24;22.37;;;15.03;;
19006;SDS011;9636;47.382;8.480;2022-08-21T06:07:28;21.37;;;14.83;;
19006;SDS011;9636;47.382;8.480;2022-08-21T06:13:16;13.50;;;10.97;;
19006;SDS011;9636;47.382;8.480;2022-08-21T06:16:02;14.53;;;11.67;;
19006;SDS011;9636;47.382;8.480;2022-08-21T06:18:35;14.13;;;11.00;;
19006;SDS011;9636;47.382;8.480;2022-08-21T06:21:03;12.03;;;9.97;;
19006;SDS011;9636;47.382;8.480;2022-08-21T06:23:42;11.70;;;9.43;;
19006;SDS011;9636;47.382;8.480;2022-08-21T06:26:10;9.70;;;8.17;;
19006;SDS011;9636;47.382;8.480;2022-08-21T06:28:41;9.23;;;7.97;;
19006;SDS011;9636;47.382;8.480;2022-08-21T11:38:25;2.63;;;2.00;;
19006;SDS011;9636;47.382;8.480;2022-08-21T11:41:28;2.80;;;1.83;;
19006;SDS011;9636;47.382;8.480;2022-08-21T11:44:42;4.00;;;1.70;;
19006;SDS011;9636;47.382;8.480;2022-08-21T12:12:29;2.17;;;1.92;;
19006;SDS011;9636;47.382;8.480;2022-08-21T13:02:49;2.55;;;1.55;;
19006;SDS011;9636;47.382;8.480;2022-08-21T13:05:26;1.30;;;1.20;;
19006;SDS011;9636;47.382;8.480;2022-08-21T13:07:55;1.75;;;1.40;;
19006;SDS011;9636;47.382;8.480;2022-08-21T13:10:23;1.73;;;1.50;;
19006;SDS011;9636;47.382;8.480;2022-08-21T13:12:53;1.80;;;1.70;;
19006;SDS011;9636;47.382;8.480;2022-08-21T13:15:22;1.90;;;1.70;;
19006;SDS011;9636;47.382;8.480;2022-08-21T13:17:54;1.77;;;1.67;;
19006;SDS011;9636;47.382;8.480;2022-08-21T13:20:27;2.50;;;1.55;;
19006;SDS011;9636;47.382;8.480;2022-08-21T13:22:55;3.40;;;1.42;;
19006;SDS011;9636;47.382;8.480;2022-08-21T13:25:25;1.73;;;1.35;;
19006;SDS011;9636;47.382;8.480;2022-08-21T13:27:58;1.40;;;1.30;;
19006;SDS011;9636;47.382;8.480;2022-08-21T13:30:26;1.85;;;1.45;;
19006;SDS011;9636;47.382;8.480;2022-08-21T13:32:57;1.30;;;1.20;;
19006;SDS011;9636;47.382;8.480;2022-08-21T13:35:27;2.03;;;1.42;;
19006;SDS011;9636;47.382;8.480;2022-08-21T13:37:56;1.55;;;1.33;;
19006;SDS011;9636;47.382;8.480;2022-08-21T13:40:25;1.40;;;1.30;;
19006;SDS011;9636;47.382;8.480;2022-08-21T13:42:55;1.58;;;1.10;;
19006;SDS011;9636;47.382;8.480;2022-08-21T13:45:23;3.83;;;1.20;;
19006;SDS011;9636;47.382;8.480;2022-08-21T13:47:52;0.98;;;0.98;;
19006;SDS011;9636;47.382;8.480;2022-08-21T13:50:23;1.42;;;1.10;;
19006;SDS011;9636;47.382;8.480;2022-08-21T13:52:56;1.92;;;1.10;;
19006;SDS011;9636;47.382;8.480;2022-08-21T13:55:25;1.08;;;1.00;;
19006;SDS011;9636;47.382;8.480;2022-08-21T13:58:03;5.07;;;1.00;;
19006;SDS011;9636;47.382;8.480;2022-08-21T14:00:31;1.45;;;0.90;;
19006;SDS011;9636;47.382;8.480;2022-08-21T14:03:04;1.25;;;1.10;;
19006;SDS011;9636;47.382;8.480;2022-08-21T14:05:36;1.20;;;0.90;;
19006;SDS011;9636;47.382;8.480;2022-08-21T14:08:10;2.35;;;1.23;;
19006;SDS011;9636;47.382;8.480;2022-08-21T14:10:42;0.95;;;0.95;;
19006;SDS011;9636;47.382;8.480;2022-08-21T14:13:22;2.65;;;1.00;;
19006;SDS011;9636;47.382;8.480;2022-08-21T14:16:00;1.20;;;1.10;;
19006;SDS011;9636;47.382;8.480;2022-08-21T14:18:28;0.90;;;0.90;;
19006;SDS011;9636;47.382;8.480;2022-08-21T14:21:04;3.58;;;1.00;;
19006;SDS011;9636;47.382;8.480;2022-08-21T14:23:32;1.27;;;0.95;;
19006;SDS011;9636;47.382;8.480;2022-08-21T14:26:00;1.15;;;1.00;;
19006;SDS011;9636;47.382;8.480;2022-08-21T14:28:30;1.77;;;0.90;;
19006;SDS011;9636;47.382;8.480;2022-08-21T14:30:59;1.65;;;0.90;;
19006;SDS011;9636;47.382;8.480;2022-08-21T14:33:38;1.23;;;1.10;;
19006;SDS011;9636;47.382;8.480;2022-08-21T14:36:07;1.08;;;1.00;;
19006;SDS011;9636;47.382;8.480;2022-08-21T14:38:35;2.53;;;1.40;;
19006;SDS011;9636;47.382;8.480;2022-08-21T14:41:04;1.10;;;1.00;;
19006;SDS011;9636;47.382;8.480;2022-08-21T14:43:41;0.90;;;0.90;;
19006;SDS011;9636;47.382;8.480;2022-08-21T14:49:35;0.93;;;0.93;;
19006;SDS011;9636;47.382;8.480;2022-08-21T15:02:15;1.10;;;1.00;;
19006;SDS011;9636;47.382;8.480;2022-08-21T15:37:21;15.57;;;7.93;;
19006;SDS011;9636;47.382;8.480;2022-08-21T15:43:49;1.10;;;1.00;;
19006;SDS011;9636;47.382;8.480;2022-08-21T16:06:18;2.15;;;1.10;;
19006;SDS011;9636;47.382;8.480;2022-08-21T16:08:47;1.38;;;1.27;;
19006;SDS011;9636;47.382;8.480;2022-08-21T16:11:22;1.70;;;1.00;;
19006;SDS011;9636;47.382;8.480;2022-08-21T16:14:58;0.95;;;0.95;;
19006;SDS011;9636;47.382;8.480;2022-08-21T16:17:45;2.40;;;1.10;;
19006;SDS011;9636;47.382;8.480;2022-08-21T16:20:32;1.98;;;1.23;;
19006;SDS011;9636;47.382;8.480;2022-08-21T16:23:00;1.63;;;1.20;;
19006;SDS011;9636;47.382;8.480;2022-08-21T16:25:34;1.88;;;1.15;;
19006;SDS011;9636;47.382;8.480;2022-08-21T16:28:04;1.38;;;1.10;;
19006;SDS011;9636;47.382;8.480;2022-08-21T16:30:33;1.50;;;1.20;;
19006;SDS011;9636;47.382;8.480;2022-08-21T16:33:00;2.63;;;1.20;;
19006;SDS011;9636;47.382;8.480;2022-08-21T16:35:28;2.13;;;1.10;;
19006;SDS011;9636;47.382;8.480;2022-08-21T16:37:56;1.45;;;1.20;;
19006;SDS011;9636;47.382;8.480;2022-08-21T16:43:03;2.78;;;1.30;;
19006;SDS011;9636;47.382;8.480;2022-08-21T16:45:30;1.20;;;1.10;;
19006;SDS011;9636;47.382;8.480;2022-08-21T16:47:57;1.63;;;1.20;;
19006;SDS011;9636;47.382;8.480;2022-08-21T16:50:24;4.15;;;1.48;;
19006;SDS011;9636;47.382;8.480;2022-08-21T16:52:51;3.78;;;3.42;;
19006;SDS011;9636;47.382;8.480;2022-08-21T16:55:21;6.20;;;5.15;;
19006;SDS011;9636;47.382;8.480;2022-08-21T16:57:48;6.93;;;5.22;;
19006;SDS011;9636;47.382;8.480;2022-08-21T17:00:16;16.95;;;11.85;;
19006;SDS011;9636;47.382;8.480;2022-08-21T17:02:44;10.77;;;5.93;;
19006;SDS011;9636;47.382;8.480;2022-08-21T17:05:20;4.28;;;2.72;;
19006;SDS011;9636;47.382;8.480;2022-08-21T17:07:53;3.08;;;1.88;;
19006;SDS011;9636;47.382;8.480;2022-08-21T17:10:20;3.05;;;2.10;;
19006;SDS011;9636;47.382;8.480;2022-08-21T17:12:52;2.03;;;1.50;;
19006;SDS011;9636;47.382;8.480;2022-08-21T17:15:23;3.30;;;1.70;;
19006;SDS011;9636;47.382;8.480;2022-08-21T17:17:51;1.63;;;1.42;;
19006;SDS011;9636;47.382;8.480;2022-08-21T17:20:20;3.42;;;1.60;;
19006;SDS011;9636;47.382;8.480;2022-08-21T17:22:47;2.40;;;1.25;;
19006;SDS011;9636;47.382;8.480;2022-08-21T17:25:15;3.15;;;1.40;;
19006;SDS011;9636;47.382;8.480;2022-08-21T17:27:42;2.95;;;1.70;;
19006;SDS011;9636;47.382;8.480;2022-08-21T17:30:10;4.13;;;1.50;;
19006;SDS011;9636;47.382;8.480;2022-08-21T17:32:41;2.75;;;1.50;;
19006;SDS011;9636;47.382;8.480;2022-08-21T17:35:10;2.83;;;1.27;;
19006;SDS011;9636;47.382;8.480;2022-08-21T17:37:37;3.75;;;1.20;;
19006;SDS011;9636;47.382;8.480;2022-08-21T17:40:05;2.83;;;1.25;;
19006;SDS011;9636;47.382;8.480;2022-08-21T17:42:34;2.47;;;1.40;;
19006;SDS011;9636;47.382;8.480;2022-08-21T17:45:05;2.90;;;1.33;;
19006;SDS011;9636;47.382;8.480;2022-08-21T17:47:35;1.85;;;1.40;;
19006;SDS011;9636;47.382;8.480;2022-08-21T17:50:06;2.63;;;1.80;;
19006;SDS011;9636;47.382;8.480;2022-08-21T17:52:34;3.95;;;1.38;;
19006;SDS011;9636;47.382;8.480;2022-08-21T17:55:08;1.85;;;1.20;;
19006;SDS011;9636;47.382;8.480;2022-08-21T17:57:37;2.47;;;1.35;;
19006;SDS011;9636;47.382;8.480;2022-08-21T18:00:06;3.78;;;1.25;;
19006;SDS011;9636;47.382;8.480;2022-08-21T18:02:35;2.83;;;1.27;;
19006;SDS011;9636;47.382;8.480;2022-08-21T18:05:02;1.50;;;1.40;;
19006;SDS011;9636;47.382;8.480;2022-08-21T18:07:36;1.87;;;1.40;;
19006;SDS011;9636;47.382;8.480;2022-08-21T18:10:10;3.77;;;1.67;;
19006;SDS011;9636;47.382;8.480;2022-08-21T18:12:37;6.00;;;1.60;;
19006;SDS011;9636;47.382;8.480;2022-08-21T18:15:08;2.93;;;1.40;;
19006;SDS011;9636;47.382;8.480;2022-08-21T18:17:38;3.27;;;1.70;;
19006;SDS011;9636;47.382;8.480;2022-08-21T18:20:05;3.37;;;1.20;;
19006;SDS011;9636;47.382;8.480;2022-08-21T18:22:35;3.73;;;1.40;;
19006;SDS011;9636;47.382;8.480;2022-08-21T18:25:02;2.10;;;1.30;;
19006;SDS011;9636;47.382;8.480;2022-08-21T18:27:30;1.60;;;1.33;;
19006;SDS011;9636;47.382;8.480;2022-08-21T18:29:57;2.13;;;1.40;;
19006;SDS011;9636;47.382;8.480;2022-08-21T18:32:25;2.60;;;1.20;;
19006;SDS011;9636;47.382;8.480;2022-08-21T18:34:56;1.80;;;1.20;;
19006;SDS011;9636;47.382;8.480;2022-08-21T18:40:33;4.10;;;1.40;;
19006;SDS011;9636;47.382;8.480;2022-08-21T18:43:38;1.30;;;1.20;;
19006;SDS011;9636;47.382;8.480;2022-08-21T18:46:29;3.88;;;1.20;;
19006;SDS011;9636;47.382;8.480;2022-08-21T18:49:02;2.95;;;1.45;;
19006;SDS011;9636;47.382;8.480;2022-08-21T18:51:32;2.43;;;1.57;;
19006;SDS011;9636;47.382;8.480;2022-08-21T18:54:07;3.17;;;1.90;;
19006;SDS011;9636;47.382;8.480;2022-08-21T18:56:36;2.55;;;1.52;;
19006;SDS011;9636;47.382;8.480;2022-08-21T18:59:07;2.33;;;1.60;;
19006;SDS011;9636;47.382;8.480;2022-08-21T19:01:56;4.33;;;1.43;;
19006;SDS011;9636;47.382;8.480;2022-08-21T19:04:23;2.00;;;1.27;;
19006;SDS011;9636;47.382;8.480;2022-08-21T19:06:50;7.20;;;1.70;;
19006;SDS011;9636;47.382;8.480;2022-08-21T19:09:18;2.53;;;1.30;;
19006;SDS011;9636;47.382;8.480;2022-08-21T19:11:45;5.03;;;1.47;;
19006;SDS011;9636;47.382;8.480;2022-08-21T19:14:13;4.67;;;1.40;;
19006;SDS011;9636;47.382;8.480;2022-08-21T19:16:41;4.77;;;1.73;;
19006;SDS011;9636;47.382;8.480;2022-08-21T19:19:09;9.73;;;5.10;;
19006;SDS011;9636;47.382;8.480;2022-08-21T19:21:37;10.47;;;7.03;;
19006;SDS011;9636;47.382;8.480;2022-08-21T19:24:04;40.13;;;26.57;;
19006;SDS011;9636;47.382;8.480;2022-08-21T19:26:33;48.27;;;33.37;;
19006;SDS011;9636;47.382;8.480;2022-08-21T19:29:02;55.23;;;38.93;;
19006;SDS011;9636;47.382;8.480;2022-08-21T19:31:32;39.53;;;28.40;;
19006;SDS011;9636;47.382;8.480;2022-08-21T19:34:04;21.33;;;14.90;;
19006;SDS011;9636;47.382;8.480;2022-08-21T19:36:32;13.47;;;8.97;;
19006;SDS011;9636;47.382;8.480;2022-08-21T19:38:59;4.67;;;3.60;;
19006;SDS011;9636;47.382;8.480;2022-08-21T19:41:27;4.57;;;2.70;;
19006;SDS011;9636;47.382;8.480;2022-08-21T19:44:02;3.47;;;2.20;;
19006;SDS011;9636;47.382;8.480;2022-08-21T19:46:33;3.90;;;1.70;;
19006;SDS011;9636;47.382;8.480;2022-08-21T19:49:02;2.47;;;1.60;;
19006;SDS011;9636;47.382;8.480;2022-08-21T19:51:33;3.47;;;1.50;;
19006;SDS011;9636;47.382;8.480;2022-08-21T19:54:00;2.13;;;1.58;;
19006;SDS011;9636;47.382;8.480;2022-08-21T19:56:28;5.88;;;1.40;;
19006;SDS011;9636;47.382;8.480;2022-08-21T19:58:57;3.93;;;1.40;;
19006;SDS011;9636;47.382;8.480;2022-08-21T20:01:26;2.33;;;1.60;;
19006;SDS011;9636;47.382;8.480;2022-08-21T20:03:53;4.97;;;1.70;;
19006;SDS011;9636;47.382;8.480;2022-08-21T20:06:21;3.77;;;1.70;;
19006;SDS011;9636;47.382;8.480;2022-08-21T20:08:49;2.47;;;1.50;;
19006;SDS011;9636;47.382;8.480;2022-08-21T20:11:17;2.33;;;1.70;;
19006;SDS011;9636;47.382;8.480;2022-08-21T20:13:49;5.60;;;1.87;;
19006;SDS011;9636;47.382;8.480;2022-08-21T20:16:16;5.03;;;1.80;;
19006;SDS011;9636;47.382;8.480;2022-08-21T20:18:46;3.23;;;2.00;;
19006;SDS011;9636;47.382;8.480;2022-08-21T20:21:13;2.00;;;1.53;;
19006;SDS011;9636;47.382;8.480;2022-08-21T20:23:41;1.83;;;1.53;;
19006;SDS011;9636;47.382;8.480;2022-08-21T20:26:08;3.50;;;1.73;;
19006;SDS011;9636;47.382;8.480;2022-08-21T20:28:36;3.50;;;1.67;;
19006;SDS011;9636;47.382;8.480;2022-08-21T20:31:03;4.33;;;1.60;;
19006;SDS011;9636;47.382;8.480;2022-08-21T20:33:36;2.87;;;1.57;;
19006;SDS011;9636;47.382;8.480;2022-08-21T20:36:13;2.90;;;1.63;;
19006;SDS011;9636;47.382;8.480;2022-08-21T20:38:40;3.20;;;1.40;;
19006;SDS011;9636;47.382;8.480;2022-08-21T20:41:07;2.10;;;1.40;;
19006;SDS011;9636;47.382;8.480;2022-08-21T20:43:34;2.13;;;1.37;;
19006;SDS011;9636;47.382;8.480;2022-08-21T20:46:03;2.97;;;1.40;;
19006;SDS011;9636;47.382;8.480;2022-08-21T20:48:31;3.17;;;1.37;;
19006;SDS011;9636;47.382;8.480;2022-08-21T20:51:01;1.80;;;1.40;;
19006;SDS011;9636;47.382;8.480;2022-08-21T20:53:35;1.77;;;1.40;;
19006;SDS011;9636;47.382;8.480;2022-08-21T20:56:12;3.97;;;1.67;;
19006;SDS011;9636;47.382;8.480;2022-08-21T20:58:44;4.67;;;1.60;;
19006;SDS011;9636;47.382;8.480;2022-08-21T21:01:17;3.37;;;1.60;;
19006;SDS011;9636;47.382;8.480;2022-08-21T21:03:46;2.23;;;1.40;;
19006;SDS011;9636;47.382;8.480;2022-08-21T21:06:17;2.93;;;1.70;;
19006;SDS011;9636;47.382;8.480;2022-08-21T21:08:51;1.93;;;1.57;;
19006;SDS011;9636;47.382;8.480;2022-08-21T21:11:23;1.90;;;1.50;;
19006;SDS011;9636;47.382;8.480;2022-08-21T21:13:55;3.20;;;1.80;;
19006;SDS011;9636;47.382;8.480;2022-08-21T21:16:28;3.77;;;1.93;;
19006;SDS011;9636;47.382;8.480;2022-08-21T21:18:58;4.27;;;2.13;;
19006;SDS011;9636;47.382;8.480;2022-08-21T21:21:28;3.17;;;2.43;;
19006;SDS011;9636;47.382;8.480;2022-08-21T21:24:03;3.93;;;2.60;;
19006;SDS011;9636;47.382;8.480;2022-08-21T21:26:33;5.43;;;2.57;;
19006;SDS011;9636;47.382;8.480;2022-08-21T21:29:38;5.47;;;2.30;;
19006;SDS011;9636;47.382;8.480;2022-08-21T21:32:11;6.57;;;2.13;;
19006;SDS011;9636;47.382;8.480;2022-08-21T21:34:41;2.77;;;1.60;;
19006;SDS011;9636;47.382;8.480;2022-08-21T21:37:11;3.80;;;1.77;;
19006;SDS011;9636;47.382;8.480;2022-08-21T21:39:45;3.60;;;1.70;;
19006;SDS011;9636;47.382;8.480;2022-08-21T21:42:19;4.00;;;1.93;;
19006;SDS011;9636;47.382;8.480;2022-08-21T21:44:57;4.20;;;1.87;;
19006;SDS011;9636;47.382;8.480;2022-08-21T21:47:38;5.50;;;1.90;;
19006;SDS011;9636;47.382;8.480;2022-08-21T21:50:18;4.50;;;1.80;;
19006;SDS011;9636;47.382;8.480;2022-08-21T21:52:57;3.20;;;1.70;;
19006;SDS011;9636;47.382;8.480;2022-08-21T21:55:39;2.70;;;1.70;;
19006;SDS011;9636;47.382;8.480;2022-08-21T21:58:30;3.13;;;1.97;;
19006;SDS011;9636;47.382;8.480;2022-08-21T22:01:23;1.70;;;1.60;;
19006;SDS011;9636;47.382;8.480;2022-08-21T22:04:03;2.73;;;1.90;;
19006;SDS011;9636;47.382;8.480;2022-08-21T22:06:51;2.27;;;1.90;;
19006;SDS011;9636;47.382;8.480;2022-08-21T22:09:32;6.10;;;1.60;;
19006;SDS011;9636;47.382;8.480;2022-08-21T22:12:08;2.47;;;1.80;;
19006;SDS011;9636;47.382;8.480;2022-08-21T22:14:49;4.70;;;2.07;;
19006;SDS011;9636;47.382;8.480;2022-08-21T22:17:24;2.90;;;2.13;;
19006;SDS011;9636;47.382;8.480;2022-08-21T22:20:02;3.80;;;2.13;;
19006;SDS011;9636;47.382;8.480;2022-08-21T22:22:32;4.97;;;2.20;;
19006;SDS011;9636;47.382;8.480;2022-08-21T22:25:03;2.53;;;1.67;;
19006;SDS011;9636;47.382;8.480;2022-08-21T22:27:39;5.67;;;1.77;;
19006;SDS011;9636;47.382;8.480;2022-08-21T22:30:08;3.00;;;2.23;;
19006;SDS011;9636;47.382;8.480;2022-08-21T22:32:41;2.30;;;1.90;;
19006;SDS011;9636;47.382;8.480;2022-08-21T22:35:13;3.60;;;2.40;;
19006;SDS011;9636;47.382;8.480;2022-08-21T22:37:43;4.07;;;2.13;;
19006;SDS011;9636;47.382;8.480;2022-08-21T22:40:12;4.53;;;2.30;;
19006;SDS011;9636;47.382;8.480;2022-08-21T22:42:58;2.70;;;1.97;;
19006;SDS011;9636;47.382;8.480;2022-08-21T22:45:26;4.57;;;2.00;;
19006;SDS011;9636;47.382;8.480;2022-08-21T22:47:54;5.10;;;2.38;;
19006;SDS011;9636;47.382;8.480;2022-08-21T22:50:30;3.43;;;2.20;;
19006;SDS011;9636;47.382;8.480;2022-08-21T22:52:59;3.47;;;2.23;;
19006;SDS011;9636;47.382;8.480;2022-08-21T22:55:30;2.70;;;2.40;;
19006;SDS011;9636;47.382;8.480;2022-08-21T22:58:06;3.43;;;2.40;;
19006;SDS011;9636;47.382;8.480;2022-08-21T23:00:39;6.33;;;2.60;;
19006;SDS011;9636;47.382;8.480;2022-08-21T23:03:16;6.80;;;2.80;;
19006;SDS011;9636;47.382;8.480;2022-08-21T23:05:46;4.23;;;2.70;;
19006;SDS011;9636;47.382;8.480;2022-08-21T23:08:15;5.77;;;2.40;;
19006;SDS011;9636;47.382;8.480;2022-08-21T23:10:47;5.20;;;2.37;;
19006;SDS011;9636;47.382;8.480;2022-08-21T23:13:17;7.37;;;2.70;;
19006;SDS011;9636;47.382;8.480;2022-08-21T23:15:49;3.83;;;3.00;;
19006;SDS011;9636;47.382;8.480;2022-08-21T23:18:25;4.07;;;2.60;;
19006;SDS011;9636;47.382;8.480;2022-08-21T23:20:59;6.30;;;2.63;;
19006;SDS011;9636;47.382;8.480;2022-08-21T23:23:31;2.87;;;2.50;;
19006;SDS011;9636;47.382;8.480;2022-08-21T23:26:14;3.17;;;2.30;;
19006;SDS011;9636;47.382;8.480;2022-08-21T23:28:50;2.87;;;2.30;;
19006;SDS011;9636;47.382;8.480;2022-08-21T23:31:30;2.90;;;2.57;;
19006;SDS011;9636;47.382;8.480;2022-08-21T23:34:11;2.93;;;2.40;;
19006;SDS011;9636;47.382;8.480;2022-08-21T23:36:58;2.57;;;2.37;;
19006;SDS011;9636;47.382;8.480;2022-08-21T23:39:52;4.63;;;2.30;;
19006;SDS011;9636;47.382;8.480;2022-08-21T23:42:31;3.97;;;2.47;;
19006;SDS011;9636;47.382;8.480;2022-08-21T23:45:21;4.63;;;2.43;;
19006;SDS011;9636;47.382;8.480;2022-08-21T23:48:01;5.43;;;2.30;;
19006;SDS011;9636;47.382;8.480;2022-08-21T23:50:38;3.57;;;2.60;;
19006;SDS011;9636;47.382;8.480;2022-08-21T23:53:14;4.47;;;2.67;;
19006;SDS011;9636;47.382;8.480;2022-08-21T23:55:52;3.27;;;2.60;;
19006;SDS011;9636;47.382;8.480;2022-08-21T23:58:32;3.53;;;2.50;;
